sensor_id;sensor_type;location;lat;lon;timestamp;P1;durP1;ratioP1;P2;durP2;ratioP2
17441;SDS011;8838;50.144;8.176;2023-03-22T00:00:40;10.37;;;5.87;;
17441;SDS011;8838;50.144;8.176;2023-03-22T00:03:08;11.83;;;6.10;;
17441;SDS011;8838;50.144;8.176;2023-03-22T00:05:35;10.50;;;5.77;;
17441;SDS011;8838;50.144;8.176;2023-03-22T00:08:02;10.80;;;5.17;;
17441;SDS011;8838;50.144;8.176;2023-03-22T00:10:31;8.00;;;5.00;;
17441;SDS011;8838;50.144;8.176;2023-03-22T00:12:58;9.20;;;4.67;;
17441;SDS011;8838;50.144;8.176;2023-03-22T00:15:27;6.80;;;4.50;;
17441;SDS011;8838;50.144;8.176;2023-03-22T00:17:54;8.83;;;4.97;;
17441;SDS011;8838;50.144;8.176;2023-03-22T00:20:21;6.93;;;4.83;;
17441;SDS011;8838;50.144;8.176;2023-03-22T00:22:48;8.23;;;4.63;;
17441;SDS011;8838;50.144;8.176;2023-03-22T00:25:16;9.43;;;4.83;;
17441;SDS011;8838;50.144;8.176;2023-03-22T00:27:43;7.73;;;4.33;;
17441;SDS011;8838;50.144;8.176;2023-03-22T00:30:10;7.80;;;4.13;;
17441;SDS011;8838;50.144;8.176;2023-03-22T00:32:41;8.90;;;3.90;;
17441;SDS011;8838;50.144;8.176;2023-03-22T00:35:08;5.90;;;4.40;;
17441;SDS011;8838;50.144;8.176;2023-03-22T00:37:36;10.93;;;6.17;;
17441;SDS011;8838;50.144;8.176;2023-03-22T00:40:03;10.10;;;5.67;;
17441;SDS011;8838;50.144;8.176;2023-03-22T00:42:33;8.50;;;5.87;;
17441;SDS011;8838;50.144;8.176;2023-03-22T00:45:00;7.90;;;5.73;;
17441;SDS011;8838;50.144;8.176;2023-03-22T00:47:27;14.10;;;6.07;;
17441;SDS011;8838;50.144;8.176;2023-03-22T00:49:55;10.73;;;6.70;;
17441;SDS011;8838;50.144;8.176;2023-03-22T00:52:22;12.60;;;7.30;;
17441;SDS011;8838;50.144;8.176;2023-03-22T00:54:49;11.77;;;6.33;;
17441;SDS011;8838;50.144;8.176;2023-03-22T00:57:16;12.30;;;7.13;;
17441;SDS011;8838;50.144;8.176;2023-03-22T00:59:43;12.57;;;7.20;;
17441;SDS011;8838;50.144;8.176;2023-03-22T01:02:10;14.50;;;6.57;;
17441;SDS011;8838;50.144;8.176;2023-03-22T01:04:38;8.47;;;6.23;;
17441;SDS011;8838;50.144;8.176;2023-03-22T01:07:12;10.90;;;5.83;;
17441;SDS011;8838;50.144;8.176;2023-03-22T01:09:42;9.53;;;5.53;;
17441;SDS011;8838;50.144;8.176;2023-03-22T01:12:09;12.37;;;6.30;;
17441;SDS011;8838;50.144;8.176;2023-03-22T01:14:36;10.03;;;6.03;;
17441;SDS011;8838;50.144;8.176;2023-03-22T01:17:03;11.70;;;5.60;;
17441;SDS011;8838;50.144;8.176;2023-03-22T01:19:31;8.80;;;6.20;;
17441;SDS011;8838;50.144;8.176;2023-03-22T01:21:58;9.27;;;6.27;;
17441;SDS011;8838;50.144;8.176;2023-03-22T01:24:26;9.53;;;5.87;;
17441;SDS011;8838;50.144;8.176;2023-03-22T01:26:53;11.77;;;6.60;;
17441;SDS011;8838;50.144;8.176;2023-03-22T01:29:20;12.10;;;5.93;;
17441;SDS011;8838;50.144;8.176;2023-03-22T01:31:47;10.07;;;6.20;;
17441;SDS011;8838;50.144;8.176;2023-03-22T01:34:14;9.23;;;5.90;;
17441;SDS011;8838;50.144;8.176;2023-03-22T01:36:41;13.93;;;6.50;;
17441;SDS011;8838;50.144;8.176;2023-03-22T01:39:08;12.40;;;6.50;;
17441;SDS011;8838;50.144;8.176;2023-03-22T01:41:36;12.07;;;6.47;;
17441;SDS011;8838;50.144;8.176;2023-03-22T01:44:07;10.37;;;6.67;;
17441;SDS011;8838;50.144;8.176;2023-03-22T01:46:35;11.93;;;6.47;;
17441;SDS011;8838;50.144;8.176;2023-03-22T01:49:02;12.10;;;6.10;;
17441;SDS011;8838;50.144;8.176;2023-03-22T01:51:31;15.67;;;7.53;;
17441;SDS011;8838;50.144;8.176;2023-03-22T01:53:59;16.73;;;7.27;;
17441;SDS011;8838;50.144;8.176;2023-03-22T01:56:32;11.40;;;7.67;;
17441;SDS011;8838;50.144;8.176;2023-03-22T01:59:02;11.33;;;7.17;;
17441;SDS011;8838;50.144;8.176;2023-03-22T02:01:31;13.23;;;6.50;;
17441;SDS011;8838;50.144;8.176;2023-03-22T02:04:01;10.33;;;6.30;;
17441;SDS011;8838;50.144;8.176;2023-03-22T02:06:31;10.83;;;6.50;;
17441;SDS011;8838;50.144;8.176;2023-03-22T02:09:02;13.50;;;7.33;;
17441;SDS011;8838;50.144;8.176;2023-03-22T02:11:31;13.77;;;8.07;;
17441;SDS011;8838;50.144;8.176;2023-03-22T02:14:16;15.07;;;7.87;;
17441;SDS011;8838;50.144;8.176;2023-03-22T02:16:56;17.43;;;8.77;;
17441;SDS011;8838;50.144;8.176;2023-03-22T02:19:38;14.90;;;9.03;;
17441;SDS011;8838;50.144;8.176;2023-03-22T02:22:41;11.40;;;7.90;;
17441;SDS011;8838;50.144;8.176;2023-03-22T02:28:32;16.73;;;8.43;;
17441;SDS011;8838;50.144;8.176;2023-03-22T02:34:10;11.53;;;7.43;;
17441;SDS011;8838;50.144;8.176;2023-03-22T02:37:26;14.83;;;7.90;;
17441;SDS011;8838;50.144;8.176;2023-03-22T02:40:25;13.83;;;8.43;;
17441;SDS011;8838;50.144;8.176;2023-03-22T02:42:59;12.50;;;7.77;;
17441;SDS011;8838;50.144;8.176;2023-03-22T02:45:32;16.43;;;9.00;;
17441;SDS011;8838;50.144;8.176;2023-03-22T02:48:08;12.50;;;7.63;;
17441;SDS011;8838;50.144;8.176;2023-03-22T02:50:40;11.40;;;7.97;;
17441;SDS011;8838;50.144;8.176;2023-03-22T02:53:13;17.23;;;8.10;;
17441;SDS011;8838;50.144;8.176;2023-03-22T02:55:44;13.20;;;7.40;;
17441;SDS011;8838;50.144;8.176;2023-03-22T02:58:17;14.47;;;7.50;;
17441;SDS011;8838;50.144;8.176;2023-03-22T03:00:46;14.60;;;7.80;;
17441;SDS011;8838;50.144;8.176;2023-03-22T03:03:16;15.33;;;8.07;;
17441;SDS011;8838;50.144;8.176;2023-03-22T03:05:44;15.77;;;8.47;;
17441;SDS011;8838;50.144;8.176;2023-03-22T03:08:15;12.77;;;8.10;;
17441;SDS011;8838;50.144;8.176;2023-03-22T03:10:46;12.43;;;8.33;;
17441;SDS011;8838;50.144;8.176;2023-03-22T03:13:13;12.80;;;8.23;;
17441;SDS011;8838;50.144;8.176;2023-03-22T03:15:43;11.40;;;7.87;;
17441;SDS011;8838;50.144;8.176;2023-03-22T03:18:18;17.03;;;7.90;;
17441;SDS011;8838;50.144;8.176;2023-03-22T03:21:03;11.60;;;7.77;;
17441;SDS011;8838;50.144;8.176;2023-03-22T03:23:43;15.90;;;8.70;;
17441;SDS011;8838;50.144;8.176;2023-03-22T03:26:19;15.40;;;7.97;;
17441;SDS011;8838;50.144;8.176;2023-03-22T03:28:55;16.90;;;8.47;;
17441;SDS011;8838;50.144;8.176;2023-03-22T03:31:29;14.27;;;8.67;;
17441;SDS011;8838;50.144;8.176;2023-03-22T03:34:01;14.57;;;8.70;;
17441;SDS011;8838;50.144;8.176;2023-03-22T03:36:37;12.70;;;8.57;;
17441;SDS011;8838;50.144;8.176;2023-03-22T03:39:09;13.13;;;8.37;;
17441;SDS011;8838;50.144;8.176;2023-03-22T03:41:40;15.17;;;8.40;;
17441;SDS011;8838;50.144;8.176;2023-03-22T03:44:09;14.97;;;8.20;;
17441;SDS011;8838;50.144;8.176;2023-03-22T03:46:36;16.97;;;8.47;;
17441;SDS011;8838;50.144;8.176;2023-03-22T03:49:04;15.40;;;8.17;;
17441;SDS011;8838;50.144;8.176;2023-03-22T03:51:35;18.83;;;8.93;;
17441;SDS011;8838;50.144;8.176;2023-03-22T03:54:11;14.33;;;8.90;;
17441;SDS011;8838;50.144;8.176;2023-03-22T03:56:40;15.07;;;8.40;;
17441;SDS011;8838;50.144;8.176;2023-03-22T03:59:07;18.27;;;8.67;;
17441;SDS011;8838;50.144;8.176;2023-03-22T04:01:33;14.23;;;8.97;;
17441;SDS011;8838;50.144;8.176;2023-03-22T04:04:00;16.97;;;9.13;;
17441;SDS011;8838;50.144;8.176;2023-03-22T04:06:27;15.87;;;9.10;;
17441;SDS011;8838;50.144;8.176;2023-03-22T04:08:54;14.63;;;9.07;;
17441;SDS011;8838;50.144;8.176;2023-03-22T04:11:22;13.57;;;9.27;;
17441;SDS011;8838;50.144;8.176;2023-03-22T04:13:50;16.03;;;9.60;;
17441;SDS011;8838;50.144;8.176;2023-03-22T04:16:16;21.90;;;10.43;;
17441;SDS011;8838;50.144;8.176;2023-03-22T04:18:43;16.83;;;10.10;;
17441;SDS011;8838;50.144;8.176;2023-03-22T04:21:10;14.47;;;9.77;;
17441;SDS011;8838;50.144;8.176;2023-03-22T04:23:40;19.03;;;10.00;;
17441;SDS011;8838;50.144;8.176;2023-03-22T04:26:10;19.23;;;11.57;;
17441;SDS011;8838;50.144;8.176;2023-03-22T04:28:37;21.77;;;12.77;;
17441;SDS011;8838;50.144;8.176;2023-03-22T04:31:06;18.57;;;12.10;;
17441;SDS011;8838;50.144;8.176;2023-03-22T04:33:33;17.87;;;12.50;;
17441;SDS011;8838;50.144;8.176;2023-03-22T04:36:03;24.10;;;13.87;;
17441;SDS011;8838;50.144;8.176;2023-03-22T04:38:31;23.83;;;14.23;;
17441;SDS011;8838;50.144;8.176;2023-03-22T04:40:59;25.87;;;13.83;;
17441;SDS011;8838;50.144;8.176;2023-03-22T04:43:26;20.00;;;14.07;;
17441;SDS011;8838;50.144;8.176;2023-03-22T04:45:52;21.50;;;13.90;;
17441;SDS011;8838;50.144;8.176;2023-03-22T04:48:23;23.47;;;14.07;;
17441;SDS011;8838;50.144;8.176;2023-03-22T04:50:52;23.27;;;14.00;;
17441;SDS011;8838;50.144;8.176;2023-03-22T04:53:19;23.73;;;14.17;;
17441;SDS011;8838;50.144;8.176;2023-03-22T04:55:51;22.80;;;13.57;;
17441;SDS011;8838;50.144;8.176;2023-03-22T04:58:20;25.43;;;14.90;;
17441;SDS011;8838;50.144;8.176;2023-03-22T05:00:48;25.33;;;14.93;;
17441;SDS011;8838;50.144;8.176;2023-03-22T05:03:16;25.57;;;15.70;;
17441;SDS011;8838;50.144;8.176;2023-03-22T05:05:52;26.20;;;16.20;;
17441;SDS011;8838;50.144;8.176;2023-03-22T05:08:21;29.30;;;15.77;;
17441;SDS011;8838;50.144;8.176;2023-03-22T05:10:49;25.40;;;15.27;;
17441;SDS011;8838;50.144;8.176;2023-03-22T05:13:17;26.20;;;15.60;;
17441;SDS011;8838;50.144;8.176;2023-03-22T05:15:44;23.97;;;14.50;;
17441;SDS011;8838;50.144;8.176;2023-03-22T05:18:11;28.90;;;15.23;;
17441;SDS011;8838;50.144;8.176;2023-03-22T05:20:39;25.63;;;15.70;;
17441;SDS011;8838;50.144;8.176;2023-03-22T05:23:07;25.20;;;15.03;;
17441;SDS011;8838;50.144;8.176;2023-03-22T05:25:34;22.37;;;14.03;;
17441;SDS011;8838;50.144;8.176;2023-03-22T05:28:02;24.77;;;14.57;;
17441;SDS011;8838;50.144;8.176;2023-03-22T05:30:30;20.60;;;14.10;;
17441;SDS011;8838;50.144;8.176;2023-03-22T05:32:58;27.83;;;13.80;;
17441;SDS011;8838;50.144;8.176;2023-03-22T05:35:27;24.77;;;14.67;;
17441;SDS011;8838;50.144;8.176;2023-03-22T05:37:54;24.90;;;16.03;;
17441;SDS011;8838;50.144;8.176;2023-03-22T05:40:22;24.57;;;14.27;;
17441;SDS011;8838;50.144;8.176;2023-03-22T05:42:49;21.60;;;14.97;;
17441;SDS011;8838;50.144;8.176;2023-03-22T05:45:16;23.73;;;15.40;;
17441;SDS011;8838;50.144;8.176;2023-03-22T05:47:44;22.43;;;14.30;;
17441;SDS011;8838;50.144;8.176;2023-03-22T05:50:11;26.67;;;15.83;;
17441;SDS011;8838;50.144;8.176;2023-03-22T05:52:39;23.97;;;14.90;;
17441;SDS011;8838;50.144;8.176;2023-03-22T05:55:09;22.20;;;14.93;;
17441;SDS011;8838;50.144;8.176;2023-03-22T05:57:38;22.57;;;14.77;;
17441;SDS011;8838;50.144;8.176;2023-03-22T06:00:06;21.60;;;14.63;;
17441;SDS011;8838;50.144;8.176;2023-03-22T06:02:37;21.30;;;13.97;;
17441;SDS011;8838;50.144;8.176;2023-03-22T06:05:04;17.70;;;12.37;;
17441;SDS011;8838;50.144;8.176;2023-03-22T06:07:32;24.80;;;13.93;;
17441;SDS011;8838;50.144;8.176;2023-03-22T06:09:59;19.27;;;12.33;;
17441;SDS011;8838;50.144;8.176;2023-03-22T06:12:26;24.10;;;12.37;;
17441;SDS011;8838;50.144;8.176;2023-03-22T06:14:54;22.17;;;12.67;;
17441;SDS011;8838;50.144;8.176;2023-03-22T06:17:21;20.57;;;12.57;;
17441;SDS011;8838;50.144;8.176;2023-03-22T06:19:48;19.20;;;11.70;;
17441;SDS011;8838;50.144;8.176;2023-03-22T06:22:15;19.80;;;11.13;;
17441;SDS011;8838;50.144;8.176;2023-03-22T06:24:42;15.90;;;11.03;;
17441;SDS011;8838;50.144;8.176;2023-03-22T06:27:09;18.50;;;11.30;;
17441;SDS011;8838;50.144;8.176;2023-03-22T06:29:35;20.07;;;11.13;;
17441;SDS011;8838;50.144;8.176;2023-03-22T06:32:04;17.23;;;10.40;;
17441;SDS011;8838;50.144;8.176;2023-03-22T06:34:31;19.53;;;11.23;;
17441;SDS011;8838;50.144;8.176;2023-03-22T06:36:58;18.67;;;11.00;;
17441;SDS011;8838;50.144;8.176;2023-03-22T06:39:25;15.67;;;10.43;;
17441;SDS011;8838;50.144;8.176;2023-03-22T06:41:52;16.30;;;10.20;;
17441;SDS011;8838;50.144;8.176;2023-03-22T06:44:19;16.53;;;9.93;;
17441;SDS011;8838;50.144;8.176;2023-03-22T06:46:46;14.00;;;9.17;;
17441;SDS011;8838;50.144;8.176;2023-03-22T06:49:15;13.80;;;9.07;;
17441;SDS011;8838;50.144;8.176;2023-03-22T06:51:43;17.87;;;9.67;;
17441;SDS011;8838;50.144;8.176;2023-03-22T06:54:10;15.40;;;9.40;;
17441;SDS011;8838;50.144;8.176;2023-03-22T06:56:37;15.63;;;9.77;;
17441;SDS011;8838;50.144;8.176;2023-03-22T06:59:04;18.03;;;9.90;;
17441;SDS011;8838;50.144;8.176;2023-03-22T07:01:31;14.60;;;9.27;;
17441;SDS011;8838;50.144;8.176;2023-03-22T07:03:58;12.53;;;8.63;;
17441;SDS011;8838;50.144;8.176;2023-03-22T07:06:26;14.37;;;8.73;;
17441;SDS011;8838;50.144;8.176;2023-03-22T07:08:54;15.47;;;8.97;;
17441;SDS011;8838;50.144;8.176;2023-03-22T07:11:21;13.00;;;8.03;;
17441;SDS011;8838;50.144;8.176;2023-03-22T07:13:49;13.03;;;8.23;;
17441;SDS011;8838;50.144;8.176;2023-03-22T07:16:16;11.73;;;7.50;;
17441;SDS011;8838;50.144;8.176;2023-03-22T07:18:44;12.63;;;7.40;;
17441;SDS011;8838;50.144;8.176;2023-03-22T07:21:12;11.17;;;7.33;;
17441;SDS011;8838;50.144;8.176;2023-03-22T07:23:43;11.13;;;7.37;;
17441;SDS011;8838;50.144;8.176;2023-03-22T07:26:10;10.48;;;6.72;;
17441;SDS011;8838;50.144;8.176;2023-03-22T07:28:38;10.70;;;6.20;;
17441;SDS011;8838;50.144;8.176;2023-03-22T07:31:06;9.32;;;6.10;;
17441;SDS011;8838;50.144;8.176;2023-03-22T07:33:35;10.43;;;6.55;;
17441;SDS011;8838;50.144;8.176;2023-03-22T07:36:03;10.60;;;6.50;;
17441;SDS011;8838;50.144;8.176;2023-03-22T07:38:30;12.23;;;6.90;;
17441;SDS011;8838;50.144;8.176;2023-03-22T07:40:59;8.90;;;6.18;;
17441;SDS011;8838;50.144;8.176;2023-03-22T07:43:26;8.85;;;6.15;;
17441;SDS011;8838;50.144;8.176;2023-03-22T07:45:53;11.13;;;6.70;;
17441;SDS011;8838;50.144;8.176;2023-03-22T07:48:20;10.95;;;6.75;;
17441;SDS011;8838;50.144;8.176;2023-03-22T07:50:48;12.63;;;6.50;;
17441;SDS011;8838;50.144;8.176;2023-03-22T07:53:15;9.82;;;5.88;;
17441;SDS011;8838;50.144;8.176;2023-03-22T07:55:42;8.55;;;6.30;;
17441;SDS011;8838;50.144;8.176;2023-03-22T07:58:10;9.63;;;6.35;;
17441;SDS011;8838;50.144;8.176;2023-03-22T08:00:37;11.55;;;6.50;;
17441;SDS011;8838;50.144;8.176;2023-03-22T08:03:03;11.35;;;7.00;;
17441;SDS011;8838;50.144;8.176;2023-03-22T08:05:30;12.43;;;6.60;;
17441;SDS011;8838;50.144;8.176;2023-03-22T08:07:57;12.20;;;6.68;;
17441;SDS011;8838;50.144;8.176;2023-03-22T08:10:24;10.07;;;6.60;;
17441;SDS011;8838;50.144;8.176;2023-03-22T08:12:51;9.70;;;5.82;;
17441;SDS011;8838;50.144;8.176;2023-03-22T08:15:19;9.43;;;5.85;;
17441;SDS011;8838;50.144;8.176;2023-03-22T08:17:46;9.18;;;5.45;;
17441;SDS011;8838;50.144;8.176;2023-03-22T08:20:14;10.05;;;5.20;;
17441;SDS011;8838;50.144;8.176;2023-03-22T08:22:42;11.50;;;5.75;;
17441;SDS011;8838;50.144;8.176;2023-03-22T08:25:09;9.18;;;5.68;;
17441;SDS011;8838;50.144;8.176;2023-03-22T08:27:36;6.97;;;5.30;;
17441;SDS011;8838;50.144;8.176;2023-03-22T08:30:04;10.18;;;5.60;;
17441;SDS011;8838;50.144;8.176;2023-03-22T08:32:33;10.32;;;5.40;;
17441;SDS011;8838;50.144;8.176;2023-03-22T08:35:00;9.60;;;6.50;;
17441;SDS011;8838;50.144;8.176;2023-03-22T08:37:28;12.80;;;6.28;;
17441;SDS011;8838;50.144;8.176;2023-03-22T08:39:54;11.05;;;6.60;;
17441;SDS011;8838;50.144;8.176;2023-03-22T08:42:21;10.75;;;6.78;;
17441;SDS011;8838;50.144;8.176;2023-03-22T08:44:48;9.88;;;6.70;;
17441;SDS011;8838;50.144;8.176;2023-03-22T08:47:16;11.05;;;7.10;;
17441;SDS011;8838;50.144;8.176;2023-03-22T08:49:44;8.30;;;6.35;;
17441;SDS011;8838;50.144;8.176;2023-03-22T08:52:11;10.95;;;6.40;;
17441;SDS011;8838;50.144;8.176;2023-03-22T08:54:39;9.18;;;6.13;;
17441;SDS011;8838;50.144;8.176;2023-03-22T08:57:05;9.40;;;6.05;;
17441;SDS011;8838;50.144;8.176;2023-03-22T08:59:33;8.38;;;5.07;;
17441;SDS011;8838;50.144;8.176;2023-03-22T09:02:00;7.82;;;5.13;;
17441;SDS011;8838;50.144;8.176;2023-03-22T09:04:27;7.80;;;4.38;;
17441;SDS011;8838;50.144;8.176;2023-03-22T09:06:56;7.05;;;4.25;;
17441;SDS011;8838;50.144;8.176;2023-03-22T09:09:23;5.95;;;4.00;;
17441;SDS011;8838;50.144;8.176;2023-03-22T09:11:49;9.70;;;4.30;;
17441;SDS011;8838;50.144;8.176;2023-03-22T09:14:16;7.78;;;4.45;;
17441;SDS011;8838;50.144;8.176;2023-03-22T09:16:43;8.88;;;4.25;;
17441;SDS011;8838;50.144;8.176;2023-03-22T09:19:10;6.50;;;3.83;;
17441;SDS011;8838;50.144;8.176;2023-03-22T09:21:37;6.57;;;3.80;;
17441;SDS011;8838;50.144;8.176;2023-03-22T09:24:07;7.53;;;4.25;;
17441;SDS011;8838;50.144;8.176;2023-03-22T09:26:34;6.82;;;4.00;;
17441;SDS011;8838;50.144;8.176;2023-03-22T09:29:00;9.45;;;4.45;;
17441;SDS011;8838;50.144;8.176;2023-03-22T09:31:27;6.57;;;4.55;;
17441;SDS011;8838;50.144;8.176;2023-03-22T09:33:54;7.95;;;4.40;;
17441;SDS011;8838;50.144;8.176;2023-03-22T09:36:21;7.22;;;4.28;;
17441;SDS011;8838;50.144;8.176;2023-03-22T09:38:48;7.18;;;4.32;;
17441;SDS011;8838;50.144;8.176;2023-03-22T09:41:17;6.80;;;3.78;;
17441;SDS011;8838;50.144;8.176;2023-03-22T09:43:49;6.45;;;3.78;;
17441;SDS011;8838;50.144;8.176;2023-03-22T09:46:19;7.38;;;3.38;;
17441;SDS011;8838;50.144;8.176;2023-03-22T09:48:54;5.60;;;3.00;;
17441;SDS011;8838;50.144;8.176;2023-03-22T09:51:27;5.25;;;3.25;;
17441;SDS011;8838;50.144;8.176;2023-03-22T09:53:58;6.90;;;3.00;;
17441;SDS011;8838;50.144;8.176;2023-03-22T09:56:28;7.45;;;3.08;;
17441;SDS011;8838;50.144;8.176;2023-03-22T09:58:58;7.57;;;3.13;;
17441;SDS011;8838;50.144;8.176;2023-03-22T10:01:35;5.60;;;2.88;;
17441;SDS011;8838;50.144;8.176;2023-03-22T10:04:13;5.93;;;2.67;;
17441;SDS011;8838;50.144;8.176;2023-03-22T10:06:54;5.65;;;2.80;;
17441;SDS011;8838;50.144;8.176;2023-03-22T10:09:30;4.85;;;2.63;;
17441;SDS011;8838;50.144;8.176;2023-03-22T10:12:13;5.55;;;2.92;;
17441;SDS011;8838;50.144;8.176;2023-03-22T10:14:45;5.38;;;2.85;;
17441;SDS011;8838;50.144;8.176;2023-03-22T10:17:17;7.38;;;2.88;;
17441;SDS011;8838;50.144;8.176;2023-03-22T10:19:49;5.45;;;2.88;;
17441;SDS011;8838;50.144;8.176;2023-03-22T10:22:20;4.78;;;2.50;;
17441;SDS011;8838;50.144;8.176;2023-03-22T10:24:50;3.55;;;2.20;;
17441;SDS011;8838;50.144;8.176;2023-03-22T10:27:20;5.45;;;2.10;;
17441;SDS011;8838;50.144;8.176;2023-03-22T10:29:49;4.32;;;2.10;;
17441;SDS011;8838;50.144;8.176;2023-03-22T10:32:19;2.80;;;1.80;;
17441;SDS011;8838;50.144;8.176;2023-03-22T10:34:54;3.15;;;1.80;;
17441;SDS011;8838;50.144;8.176;2023-03-22T10:37:22;3.17;;;1.50;;
17441;SDS011;8838;50.144;8.176;2023-03-22T10:39:56;3.47;;;1.83;;
17441;SDS011;8838;50.144;8.176;2023-03-22T10:42:27;4.82;;;2.17;;
17441;SDS011;8838;50.144;8.176;2023-03-22T10:44:57;5.65;;;1.90;;
17441;SDS011;8838;50.144;8.176;2023-03-22T10:47:28;3.05;;;1.70;;
17441;SDS011;8838;50.144;8.176;2023-03-22T10:49:59;4.05;;;1.65;;
17441;SDS011;8838;50.144;8.176;2023-03-22T10:52:33;2.92;;;1.70;;
17441;SDS011;8838;50.144;8.176;2023-03-22T10:55:08;2.28;;;1.30;;
17441;SDS011;8838;50.144;8.176;2023-03-22T10:57:37;2.83;;;1.27;;
17441;SDS011;8838;50.144;8.176;2023-03-22T11:00:08;1.83;;;1.25;;
17441;SDS011;8838;50.144;8.176;2023-03-22T11:02:42;4.35;;;1.35;;
17441;SDS011;8838;50.144;8.176;2023-03-22T11:05:18;2.60;;;1.30;;
17441;SDS011;8838;50.144;8.176;2023-03-22T11:07:48;4.18;;;1.48;;
17441;SDS011;8838;50.144;8.176;2023-03-22T11:10:19;3.40;;;1.40;;
17441;SDS011;8838;50.144;8.176;2023-03-22T11:13:15;3.55;;;1.30;;
17441;SDS011;8838;50.144;8.176;2023-03-22T11:15:50;1.42;;;1.00;;
17441;SDS011;8838;50.144;8.176;2023-03-22T11:18:20;1.73;;;1.30;;
17441;SDS011;8838;50.144;8.176;2023-03-22T11:20:55;3.10;;;1.30;;
17441;SDS011;8838;50.144;8.176;2023-03-22T11:23:25;2.38;;;1.20;;
17441;SDS011;8838;50.144;8.176;2023-03-22T11:25:56;3.75;;;1.17;;
17441;SDS011;8838;50.144;8.176;2023-03-22T11:28:33;3.30;;;1.30;;
17441;SDS011;8838;50.144;8.176;2023-03-22T11:31:03;2.50;;;1.20;;
17441;SDS011;8838;50.144;8.176;2023-03-22T11:33:33;2.22;;;1.27;;
17441;SDS011;8838;50.144;8.176;2023-03-22T11:36:02;2.53;;;1.20;;
17441;SDS011;8838;50.144;8.176;2023-03-22T11:38:40;3.63;;;1.15;;
17441;SDS011;8838;50.144;8.176;2023-03-22T11:41:10;4.82;;;1.20;;
17441;SDS011;8838;50.144;8.176;2023-03-22T11:43:47;2.28;;;1.20;;
17441;SDS011;8838;50.144;8.176;2023-03-22T11:46:17;1.77;;;1.23;;
17441;SDS011;8838;50.144;8.176;2023-03-22T11:48:45;2.38;;;1.10;;
17441;SDS011;8838;50.144;8.176;2023-03-22T11:51:14;3.03;;;1.40;;
17441;SDS011;8838;50.144;8.176;2023-03-22T11:53:43;1.77;;;1.00;;
17441;SDS011;8838;50.144;8.176;2023-03-22T11:56:14;3.35;;;1.13;;
17441;SDS011;8838;50.144;8.176;2023-03-22T11:58:49;3.22;;;1.20;;
17441;SDS011;8838;50.144;8.176;2023-03-22T12:01:27;2.65;;;1.38;;
17441;SDS011;8838;50.144;8.176;2023-03-22T12:03:59;1.80;;;1.13;;
17441;SDS011;8838;50.144;8.176;2023-03-22T12:06:31;1.77;;;1.20;;
17441;SDS011;8838;50.144;8.176;2023-03-22T12:09:02;3.08;;;1.30;;
17441;SDS011;8838;50.144;8.176;2023-03-22T12:11:32;1.35;;;1.00;;
17441;SDS011;8838;50.144;8.176;2023-03-22T12:14:04;1.27;;;1.17;;
17441;SDS011;8838;50.144;8.176;2023-03-22T12:16:39;1.50;;;1.15;;
17441;SDS011;8838;50.144;8.176;2023-03-22T12:19:16;2.53;;;1.20;;
17441;SDS011;8838;50.144;8.176;2023-03-22T12:21:51;3.38;;;1.10;;
17441;SDS011;8838;50.144;8.176;2023-03-22T12:24:22;1.75;;;0.95;;
17441;SDS011;8838;50.144;8.176;2023-03-22T12:26:52;1.70;;;1.00;;
17441;SDS011;8838;50.144;8.176;2023-03-22T12:29:24;3.35;;;1.10;;
17441;SDS011;8838;50.144;8.176;2023-03-22T12:31:55;1.40;;;0.90;;
17441;SDS011;8838;50.144;8.176;2023-03-22T12:34:31;1.35;;;1.00;;
17441;SDS011;8838;50.144;8.176;2023-03-22T12:37:04;1.55;;;1.10;;
17441;SDS011;8838;50.144;8.176;2023-03-22T12:39:34;2.08;;;0.75;;
17441;SDS011;8838;50.144;8.176;2023-03-22T12:42:08;1.67;;;0.80;;
17441;SDS011;8838;50.144;8.176;2023-03-22T12:44:42;1.40;;;0.90;;
17441;SDS011;8838;50.144;8.176;2023-03-22T12:47:13;2.05;;;1.00;;
17441;SDS011;8838;50.144;8.176;2023-03-22T12:49:47;1.55;;;0.95;;
17441;SDS011;8838;50.144;8.176;2023-03-22T12:52:21;3.17;;;0.80;;
17441;SDS011;8838;50.144;8.176;2023-03-22T12:54:51;2.13;;;1.05;;
17441;SDS011;8838;50.144;8.176;2023-03-22T12:57:19;1.85;;;0.80;;
17441;SDS011;8838;50.144;8.176;2023-03-22T12:59:49;4.82;;;1.00;;
17441;SDS011;8838;50.144;8.176;2023-03-22T13:02:17;1.42;;;0.80;;
17441;SDS011;8838;50.144;8.176;2023-03-22T13:04:49;2.22;;;0.80;;
17441;SDS011;8838;50.144;8.176;2023-03-22T13:13:09;2.85;;;1.15;;
17441;SDS011;8838;50.144;8.176;2023-03-22T13:15:41;1.25;;;0.88;;
17441;SDS011;8838;50.144;8.176;2023-03-22T13:18:27;2.15;;;0.85;;
17441;SDS011;8838;50.144;8.176;2023-03-22T13:21:10;4.78;;;1.08;;
17441;SDS011;8838;50.144;8.176;2023-03-22T13:23:51;2.97;;;1.00;;
17441;SDS011;8838;50.144;8.176;2023-03-22T13:26:21;4.25;;;1.02;;
17441;SDS011;8838;50.144;8.176;2023-03-22T13:28:56;1.52;;;0.88;;
17441;SDS011;8838;50.144;8.176;2023-03-22T13:31:35;1.83;;;0.90;;
17441;SDS011;8838;50.144;8.176;2023-03-22T13:34:11;4.20;;;1.20;;
17441;SDS011;8838;50.144;8.176;2023-03-22T13:36:41;2.85;;;1.10;;
17441;SDS011;8838;50.144;8.176;2023-03-22T13:39:20;3.08;;;1.20;;
17441;SDS011;8838;50.144;8.176;2023-03-22T13:41:59;3.85;;;1.20;;
17441;SDS011;8838;50.144;8.176;2023-03-22T13:44:29;1.45;;;1.10;;
17441;SDS011;8838;50.144;8.176;2023-03-22T13:47:01;2.03;;;1.20;;
17441;SDS011;8838;50.144;8.176;2023-03-22T13:52:24;3.80;;;1.35;;
17441;SDS011;8838;50.144;8.176;2023-03-22T13:54:54;2.25;;;0.90;;
17441;SDS011;8838;50.144;8.176;2023-03-22T14:00:17;1.95;;;1.20;;
17441;SDS011;8838;50.144;8.176;2023-03-22T14:02:59;1.45;;;1.10;;
17441;SDS011;8838;50.144;8.176;2023-03-22T14:05:31;2.53;;;1.20;;
17441;SDS011;8838;50.144;8.176;2023-03-22T14:08:02;2.67;;;1.20;;
17441;SDS011;8838;50.144;8.176;2023-03-22T14:10:32;4.25;;;1.17;;
17441;SDS011;8838;50.144;8.176;2023-03-22T14:13:10;1.75;;;1.00;;
17441;SDS011;8838;50.144;8.176;2023-03-22T14:15:44;2.45;;;1.13;;
17441;SDS011;8838;50.144;8.176;2023-03-22T14:18:16;1.00;;;0.90;;
17441;SDS011;8838;50.144;8.176;2023-03-22T14:20:49;2.75;;;1.00;;
17441;SDS011;8838;50.144;8.176;2023-03-22T14:23:20;2.58;;;1.10;;
17441;SDS011;8838;50.144;8.176;2023-03-22T14:25:50;1.00;;;0.90;;
17441;SDS011;8838;50.144;8.176;2023-03-22T14:28:21;1.08;;;0.90;;
17441;SDS011;8838;50.144;8.176;2023-03-22T14:31:00;1.00;;;0.82;;
17441;SDS011;8838;50.144;8.176;2023-03-22T14:33:29;2.40;;;1.25;;
17441;SDS011;8838;50.144;8.176;2023-03-22T14:36:03;1.65;;;1.10;;
17441;SDS011;8838;50.144;8.176;2023-03-22T14:38:33;3.03;;;1.20;;
17441;SDS011;8838;50.144;8.176;2023-03-22T14:41:07;1.48;;;1.00;;
17441;SDS011;8838;50.144;8.176;2023-03-22T14:43:37;1.50;;;0.90;;
17441;SDS011;8838;50.144;8.176;2023-03-22T14:46:06;1.70;;;1.00;;
17441;SDS011;8838;50.144;8.176;2023-03-22T14:48:40;3.33;;;1.08;;
17441;SDS011;8838;50.144;8.176;2023-03-22T14:51:12;1.90;;;0.80;;
17441;SDS011;8838;50.144;8.176;2023-03-22T14:53:44;1.95;;;1.00;;
17441;SDS011;8838;50.144;8.176;2023-03-22T14:56:14;3.70;;;0.80;;
17441;SDS011;8838;50.144;8.176;2023-03-22T14:58:45;1.30;;;0.88;;
17441;SDS011;8838;50.144;8.176;2023-03-22T15:01:16;0.75;;;0.70;;
17441;SDS011;8838;50.144;8.176;2023-03-22T15:03:50;2.75;;;1.00;;
17441;SDS011;8838;50.144;8.176;2023-03-22T15:06:22;2.60;;;0.90;;
17441;SDS011;8838;50.144;8.176;2023-03-22T15:08:50;1.85;;;0.93;;
17441;SDS011;8838;50.144;8.176;2023-03-22T15:11:18;1.13;;;0.80;;
17441;SDS011;8838;50.144;8.176;2023-03-22T15:13:45;0.70;;;0.70;;
17441;SDS011;8838;50.144;8.176;2023-03-22T15:16:16;1.77;;;0.90;;
17441;SDS011;8838;50.144;8.176;2023-03-22T15:18:46;2.40;;;0.90;;
17441;SDS011;8838;50.144;8.176;2023-03-22T15:21:16;3.30;;;0.80;;
17441;SDS011;8838;50.144;8.176;2023-03-22T15:23:49;2.97;;;0.75;;
17441;SDS011;8838;50.144;8.176;2023-03-22T15:26:18;0.60;;;0.60;;
17441;SDS011;8838;50.144;8.176;2023-03-22T15:28:52;0.63;;;0.63;;